Time;durP1;ratioP1;P1;durP2;ratioP2;P2;SDS_P1;SDS_P2;PMS_P1;PMS_P2;Temp;Humidity;BMP_temperature;BMP_pressure;BME280_temperature;BME280_humidity;BME280_pressure;Samples;Min_cycle;Max_cycle;Signal;HPM_P1;HPM_P2
2021/10/15 00:01:23;;;;;;;6.45;1.30;;;;;;;0.88;92.33;91129.94;5007156;28;20019;-90
2021/10/15 00:03:48;;;;;;;18.73;1.35;;;;;;;0.91;92.03;91121.69;4990875;28;20058;-87
2021/10/15 00:06:14;;;;;;;16.40;1.45;;;;;;;0.83;92.35;91117.13;4974375;28;20077;-88
2021/10/15 00:08:40;;;;;;;22.83;1.70;;;;;;;0.86;92.68;91111.47;4957194;28;20035;-87
2021/10/15 00:11:05;;;;;;;10.07;1.55;;;;;;;0.81;92.78;91106.34;4956554;28;20089;-87
2021/10/15 00:13:30;;;;;;;1.77;0.98;;;;;;;0.89;92.93;91116.06;4956934;28;20456;-87
2021/10/15 00:15:56;;;;;;;14.65;1.45;;;;;;;0.80;93.65;91112.50;4973290;28;20435;-87
2021/10/15 00:18:21;;;;;;;5.45;1.30;;;;;;;0.71;93.66;91121.81;4960060;28;20026;-87
2021/10/15 00:20:47;;;;;;;2.97;1.30;;;;;;;0.69;93.55;91116.16;4976515;28;20034;-87
2021/10/15 00:23:13;;;;;;;2.35;1.20;;;;;;;0.83;93.06;91111.22;4993035;28;20022;-87
2021/10/15 00:25:38;;;;;;;3.53;1.33;;;;;;;0.75;92.14;91104.84;4999904;28;20114;-87
2021/10/15 00:28:04;;;;;;;1.80;1.20;;;;;;;0.83;91.39;91106.09;4976565;28;20026;-87
2021/10/15 00:30:29;;;;;;;1.90;1.10;;;;;;;0.89;91.05;91100.66;4992894;28;20081;-87
2021/10/15 00:32:54;;;;;;;2.50;1.20;;;;;;;0.81;91.09;91101.22;4992570;28;20022;-86
2021/10/15 00:35:20;;;;;;;2.15;1.10;;;;;;;0.79;90.90;91100.72;4992519;28;20038;-87
2021/10/15 00:37:48;;;;;;;2.55;1.30;;;;;;;0.77;90.66;91082.25;4992394;28;20027;-88
2021/10/15 00:40:14;;;;;;;2.03;1.10;;;;;;;0.77;90.92;91086.59;4991873;28;20507;-88
2021/10/15 00:42:39;;;;;;;4.05;1.10;;;;;;;0.99;90.02;91084.47;4975983;28;20134;-87
2021/10/15 00:45:05;;;;;;;2.15;1.10;;;;;;;1.04;89.70;91081.84;4976292;28;20073;-87
2021/10/15 00:47:31;;;;;;;1.45;0.90;;;;;;;1.03;88.90;91084.69;5008639;28;20113;-87
2021/10/15 00:49:56;;;;;;;1.30;0.80;;;;;;;0.97;89.42;91086.50;4992123;28;20025;-87
2021/10/15 00:52:22;;;;;;;2.40;1.00;;;;;;;0.87;89.30;91071.94;4975783;28;20031;-87
2021/10/15 00:54:47;;;;;;;1.50;0.90;;;;;;;0.84;89.95;91072.47;4959722;28;20027;-87
2021/10/15 00:57:13;;;;;;;2.53;0.95;;;;;;;0.80;90.26;91076.59;4943799;28;20046;-87
2021/10/15 00:59:39;;;;;;;1.65;0.90;;;;;;;0.89;89.84;91075.00;4995085;23;20140;-88
2021/10/15 01:02:05;;;;;;;1.42;0.90;;;;;;;0.93;89.15;91068.31;5034254;28;20021;-89
2021/10/15 01:04:30;;;;;;;4.40;1.10;;;;;;;0.94;90.34;91071.66;5017780;28;20040;-90
2021/10/15 01:06:56;;;;;;;4.32;1.00;;;;;;;0.85;90.79;91068.88;5018293;28;20032;-87
2021/10/15 01:09:23;;;;;;;18.73;1.25;;;;;;;0.72;91.70;91056.63;5015093;28;20022;-88
2021/10/15 01:11:49;;;;;;;8.20;1.00;;;;;;;0.87;90.84;91059.09;5031836;28;20018;-88
2021/10/15 01:14:15;;;;;;;9.45;1.02;;;;;;;0.66;91.77;91055.09;5014886;28;20080;-88
2021/10/15 01:16:41;;;;;;;3.95;1.00;;;;;;;0.60;93.02;91061.28;4998961;28;20029;-88
2021/10/15 01:19:06;;;;;;;6.93;0.90;;;;;;;0.59;93.41;91046.94;5014587;28;20032;-88
2021/10/15 01:21:32;;;;;;;7.43;1.40;;;;;;;0.63;93.54;91047.94;4984061;28;20034;-88
2021/10/15 01:23:57;;;;;;;1.38;0.80;;;;;;;0.60;93.28;91046.69;4995039;28;20041;-89
2021/10/15 01:26:23;;;;;;;13.95;0.85;;;;;;;0.65;91.98;91048.44;4996404;28;20117;-87
2021/10/15 01:28:48;;;;;;;14.80;1.00;;;;;;;0.64;92.70;91046.94;4978805;28;20023;-88
2021/10/15 01:31:14;;;;;;;3.17;1.00;;;;;;;0.74;92.79;91043.53;4963275;28;20029;-88
2021/10/15 01:33:39;;;;;;;8.85;0.90;;;;;;;0.57;93.32;91031.81;4979180;28;20053;-88
2021/10/15 01:36:05;;;;;;;1.88;0.70;;;;;;;0.66;93.49;91037.91;4996247;28;20041;-88
2021/10/15 01:38:30;;;;;;;2.97;0.95;;;;;;;0.90;92.60;91035.47;4979273;28;20030;-88
2021/10/15 01:40:56;;;;;;;1.83;0.73;;;;;;;0.79;92.24;91028.88;5011476;28;20022;-88
2021/10/15 01:43:26;;;;;;;1.30;0.77;;;;;;;0.82;92.17;91028.34;5011687;28;20382;-89
2021/10/15 01:45:51;;;;;;;3.90;0.77;;;;;;;0.76;92.11;91018.38;4994895;28;20026;-89
2021/10/15 01:48:17;;;;;;;4.28;0.68;;;;;;;0.74;91.59;91017.88;4962488;28;20041;-88
2021/10/15 01:50:42;;;;;;;2.00;0.80;;;;;;;0.94;90.15;91015.94;5010446;28;20542;-88
2021/10/15 01:53:08;;;;;;;2.95;0.57;;;;;;;0.76;91.39;91008.88;5010729;28;20045;-87
2021/10/15 01:55:33;;;;;;;0.93;0.50;;;;;;;0.73;91.57;91013.78;5001032;28;20018;-88
2021/10/15 01:57:59;;;;;;;3.05;0.75;;;;;;;0.54;91.92;91011.06;5014567;28;20025;-88
2021/10/15 02:00:24;;;;;;;3.83;0.75;;;;;;;0.51;92.60;91003.91;5014880;28;20391;-88
2021/10/15 02:02:49;;;;;;;10.98;0.75;;;;;;;0.54;92.92;91006.69;4998543;28;20014;-88
2021/10/15 02:05:16;;;;;;;2.85;0.70;;;;;;;0.58;92.83;90999.25;5014267;28;20044;-88
2021/10/15 02:07:41;;;;;;;1.70;0.80;;;;;;;0.57;92.56;90997.72;4998301;28;20068;-88
2021/10/15 02:10:08;;;;;;;0.98;0.60;;;;;;;0.65;91.95;90992.78;4997618;28;20104;-89
2021/10/15 02:12:33;;;;;;;1.38;0.70;;;;;;;0.67;91.69;90992.50;4981267;28;20025;-88
2021/10/15 02:14:59;;;;;;;2.88;0.60;;;;;;;0.68;91.33;90988.94;5013607;28;20026;-88
2021/10/15 02:17:24;;;;;;;1.58;0.80;;;;;;;0.63;91.36;90982.00;4996963;28;20084;-87
2021/10/15 02:19:50;;;;;;;1.20;0.57;;;;;;;0.59;91.73;90977.69;5031182;28;20026;-88
2021/10/15 02:22:15;;;;;;;1.30;0.63;;;;;;;0.65;91.62;90976.63;5015535;28;20026;-88
2021/10/15 02:24:41;;;;;;;0.65;0.40;;;;;;;0.54;91.61;90982.84;5014474;28;20037;-88
2021/10/15 02:27:06;;;;;;;0.85;0.50;;;;;;;0.66;91.55;90978.16;4981695;28;20033;-88
2021/10/15 02:29:32;;;;;;;0.68;0.43;;;;;;;0.70;91.94;90974.03;4981014;28;20037;-88
2021/10/15 02:31:57;;;;;;;1.27;0.50;;;;;;;0.71;92.38;90976.34;4997465;28;20491;-88
2021/10/15 02:34:23;;;;;;;1.63;0.68;;;;;;;0.69;92.38;90967.38;4998500;28;20560;-89
2021/10/15 02:36:48;;;;;;;1.55;0.60;;;;;;;0.76;92.14;90962.72;5014050;28;20033;-88
2021/10/15 02:39:14;;;;;;;0.80;0.50;;;;;;;0.85;91.25;90963.69;4998091;28;20030;-89
2021/10/15 02:41:39;;;;;;;0.70;0.50;;;;;;;0.87;91.30;90958.28;5031715;28;20100;-88
2021/10/15 02:44:09;;;;;;;0.80;0.60;;;;;;;0.94;90.22;90954.38;4991409;28;20567;-88
2021/10/15 02:46:34;;;;;;;0.90;0.50;;;;;;;0.78;90.18;90958.09;5011568;28;20041;-88
2021/10/15 02:49:00;;;;;;;0.60;0.40;;;;;;;0.74;90.50;90948.59;4977978;28;20030;-88
2021/10/15 02:51:25;;;;;;;1.27;0.52;;;;;;;0.68;90.21;90945.31;4978366;28;20039;-88
2021/10/15 02:53:51;;;;;;;0.75;0.50;;;;;;;0.59;91.44;90952.03;4978123;28;20030;-88
2021/10/15 02:56:16;;;;;;;0.82;0.52;;;;;;;0.66;91.46;90952.50;5007328;28;20017;-86
2021/10/15 02:58:42;;;;;;;0.75;0.40;;;;;;;0.72;91.09;90951.44;4997217;28;20034;-88
2021/10/15 03:01:07;;;;;;;1.23;0.47;;;;;;;0.80;90.70;90953.44;5014565;28;20029;-88
2021/10/15 03:03:33;;;;;;;0.70;0.30;;;;;;;0.67;90.69;90954.03;5014455;28;20394;-88
2021/10/15 03:05:58;;;;;;;1.00;0.50;;;;;;;0.76;90.48;90960.13;5014212;28;20444;-88
2021/10/15 03:08:24;;;;;;;1.08;0.60;;;;;;;0.59;90.92;90950.25;5014301;28;20066;-89
2021/10/15 03:10:49;;;;;;;0.47;0.40;;;;;;;0.55;91.47;90940.78;5015529;28;20029;-89
2021/10/15 03:13:14;;;;;;;2.28;0.50;;;;;;;0.71;90.32;90939.66;4997485;28;20025;-88
2021/10/15 03:15:40;;;;;;;0.68;0.43;;;;;;;0.65;90.58;90945.84;5013243;28;20045;-88
2021/10/15 03:18:05;;;;;;;0.70;0.50;;;;;;;0.52;91.22;90936.19;5013967;28;20390;-87
2021/10/15 03:20:31;;;;;;;1.30;0.50;;;;;;;0.64;91.20;90944.34;5033392;28;20025;-88
2021/10/15 03:22:56;;;;;;;0.88;0.55;;;;;;;0.55;92.06;90938.97;5022245;28;20018;-88
2021/10/15 03:25:22;;;;;;;2.22;0.60;;;;;;;0.59;91.58;90946.91;4997241;28;20513;-88
2021/10/15 03:27:47;;;;;;;0.73;0.50;;;;;;;0.69;90.52;90942.47;5014498;28;20029;-88
2021/10/15 03:30:13;;;;;;;0.68;0.30;;;;;;;0.65;90.81;90945.84;5017430;28;20026;-88
2021/10/15 03:32:38;;;;;;;1.08;0.60;;;;;;;0.56;90.93;90943.06;5015785;28;20049;-88
2021/10/15 03:35:04;;;;;;;0.60;0.38;;;;;;;0.56;91.58;90943.06;5014225;28;20069;-88
2021/10/15 03:37:29;;;;;;;0.47;0.30;;;;;;;0.67;90.54;90938.63;4994489;28;20022;-88
2021/10/15 03:39:55;;;;;;;1.10;0.60;;;;;;;0.65;91.58;90945.84;5011621;28;20081;-87
2021/10/15 03:42:20;;;;;;;2.63;0.57;;;;;;;0.45;92.27;90946.72;5011081;28;20021;-88
2021/10/15 03:44:46;;;;;;;1.10;0.50;;;;;;;0.47;92.63;90950.56;4994901;28;20395;-89
2021/10/15 03:47:11;;;;;;;0.95;0.55;;;;;;;0.50;91.75;90936.47;5021299;28;20048;-88
2021/10/15 03:49:37;;;;;;;0.77;0.60;;;;;;;0.41;92.74;90945.75;5013013;28;20030;-88
2021/10/15 03:52:03;;;;;;;4.30;0.50;;;;;;;0.54;92.46;90945.16;4998908;28;20478;-88
2021/10/15 03:54:28;;;;;;;0.68;0.35;;;;;;;0.55;92.21;90940.78;5001567;28;20449;-87
2021/10/15 03:56:54;;;;;;;0.82;0.50;;;;;;;0.72;91.47;90941.19;5000541;28;20073;-88
2021/10/15 03:59:20;;;;;;;0.95;0.50;;;;;;;0.49;92.92;90932.34;4998376;28;20430;-87
2021/10/15 04:01:45;;;;;;;0.68;0.40;;;;;;;0.46;93.38;90927.78;4981718;28;20525;-88
2021/10/15 04:04:10;;;;;;;0.40;0.30;;;;;;;0.47;92.74;90924.94;4990855;28;20092;-87
2021/10/15 04:06:36;;;;;;;5.97;0.50;;;;;;;0.36;92.90;90926.03;4984246;28;20017;-88
2021/10/15 04:09:02;;;;;;;0.80;0.45;;;;;;;0.44;92.81;90928.03;5017564;28;20022;-89
2021/10/15 04:11:27;;;;;;;1.42;0.60;;;;;;;0.54;92.87;90923.88;5017307;28;20025;-88
2021/10/15 04:13:53;;;;;;;4.47;0.68;;;;;;;0.51;92.97;90924.41;5017556;28;20073;-88
2021/10/15 04:16:18;;;;;;;1.02;0.50;;;;;;;0.56;92.58;90921.78;5017514;28;20496;-87
2021/10/15 04:18:43;;;;;;;0.50;0.40;;;;;;;0.42;92.83;90907.00;5016973;28;20045;-87
2021/10/15 04:21:09;;;;;;;4.05;0.75;;;;;;;0.52;93.14;90925.94;4996871;28;20446;-89
2021/10/15 04:23:34;;;;;;;2.70;0.60;;;;;;;0.43;93.23;90916.25;4981467;28;20438;-88
2021/10/15 04:26:00;;;;;;;1.63;0.60;;;;;;;0.33;93.77;90924.00;4981014;28;20029;-88
2021/10/15 04:28:25;;;;;;;0.75;0.50;;;;;;;0.34;94.13;90920.38;4981629;28;20030;-88
2021/10/15 04:30:51;;;;;;;2.58;0.60;;;;;;;0.28;94.28;90915.56;4998234;28;20039;-88
2021/10/15 04:33:16;;;;;;;13.95;1.00;;;;;;;0.32;94.01;90912.22;4981127;28;20049;-89
2021/10/15 04:35:43;;;;;;;4.78;0.70;;;;;;;0.44;93.66;90915.19;5013838;28;20022;-88
2021/10/15 04:38:08;;;;;;;5.25;0.85;;;;;;;0.50;93.93;90910.06;4999830;28;20078;-88
2021/10/15 04:40:34;;;;;;;1.10;0.70;;;;;;;0.38;94.04;90916.25;5017501;28;20026;-87
2021/10/15 04:42:59;;;;;;;7.07;0.75;;;;;;;0.39;94.12;90911.91;5034093;28;20025;-89
2021/10/15 04:45:25;;;;;;;1.73;0.68;;;;;;;0.56;93.75;90914.09;5001405;28;20060;-88
2021/10/15 04:47:50;;;;;;;1.45;0.80;;;;;;;0.46;94.01;90900.34;5018306;28;20028;-88
2021/10/15 04:50:15;;;;;;;1.25;0.77;;;;;;;0.45;93.94;90901.34;5034076;28;20033;-87
2021/10/15 04:52:41;;;;;;;1.20;0.75;;;;;;;0.42;93.94;90907.00;5000276;28;20030;-89
2021/10/15 04:55:07;;;;;;;1.15;0.77;;;;;;;0.41;93.77;90900.34;5033427;28;20471;-88
2021/10/15 04:57:32;;;;;;;1.25;0.65;;;;;;;0.45;93.41;90890.31;5032501;28;20045;-89
2021/10/15 04:59:58;;;;;;;1.10;0.60;;;;;;;0.61;92.78;90896.13;5000343;28;20116;-88
2021/10/15 05:02:23;;;;;;;1.08;0.70;;;;;;;0.51;92.49;90893.63;5032821;28;20022;-87
2021/10/15 05:04:49;;;;;;;1.08;0.63;;;;;;;0.61;92.58;90893.56;5012291;28;20022;-89
2021/10/15 05:07:14;;;;;;;1.30;0.60;;;;;;;0.57;92.74;90882.31;4997652;28;20022;-88
2021/10/15 05:09:41;;;;;;;1.13;0.68;;;;;;;0.55;92.83;90881.81;4997980;28;20041;-88
2021/10/15 05:12:13;;;;;;;1.17;0.57;;;;;;;0.62;92.58;90882.25;4981580;28;20081;-88
2021/10/15 05:14:39;;;;;;;3.47;0.88;;;;;;;0.62;92.66;90874.56;4982001;28;20033;-88
2021/10/15 05:17:04;;;;;;;3.17;0.70;;;;;;;0.83;91.88;90886.19;4997310;28;20442;-89
2021/10/15 05:19:30;;;;;;;4.03;0.90;;;;;;;0.69;91.52;90878.34;5005751;28;20028;-88
2021/10/15 05:21:55;;;;;;;1.42;0.73;;;;;;;0.65;91.65;90876.59;5021887;28;20030;-88
2021/10/15 05:24:21;;;;;;;1.55;0.70;;;;;;;0.58;92.80;90876.91;4997611;28;20026;-88
2021/10/15 05:26:46;;;;;;;1.55;0.60;;;;;;;0.58;92.92;90879.47;4997566;28;20033;-89
2021/10/15 05:29:12;;;;;;;1.23;0.70;;;;;;;0.62;92.49;90880.47;4996385;28;20030;-87
2021/10/15 05:31:37;;;;;;;2.58;0.80;;;;;;;0.61;92.37;90883.31;5008162;28;20032;-88
2021/10/15 05:34:02;;;;;;;1.85;1.10;;;;;;;0.68;92.68;90883.75;4999570;28;20022;-89
2021/10/15 05:36:28;;;;;;;2.50;1.38;;;;;;;0.77;91.82;90879.56;5032650;28;20022;-88
2021/10/15 05:38:53;;;;;;;2.97;1.30;;;;;;;0.72;92.00;90879.63;5017290;28;20401;-88
2021/10/15 05:41:19;;;;;;;4.47;1.38;;;;;;;0.87;90.97;90871.78;5032542;28;20025;-89
2021/10/15 05:43:45;;;;;;;2.55;1.48;;;;;;;0.76;90.40;90875.47;5000560;28;20020;-88
2021/10/15 05:46:10;;;;;;;4.95;1.70;;;;;;;0.73;89.85;90865.75;5017015;28;20026;-88
2021/10/15 05:48:36;;;;;;;2.42;1.30;;;;;;;0.71;88.85;90872.97;5034362;28;20107;-88
2021/10/15 05:51:01;;;;;;;3.42;2.58;;;;;;;0.52;88.94;90869.50;5000939;28;20034;-88
2021/10/15 05:53:27;;;;;;;13.73;8.07;;;;;;;0.47;88.64;90868.53;4997178;28;20033;-88
2021/10/15 06:01:07;;;;;;;37.60;12.75;;;;;;;0.42;88.77;90878.03;4994427;28;20158;-88
2021/10/15 06:03:33;;;;;;;28.30;10.48;;;;;;;0.34;89.47;90868.34;4994234;28;20034;-88
2021/10/15 06:14:18;;;;;;;26.77;10.87;;;;;;;0.44;89.81;90876.75;5038903;28;20072;-91
2021/10/15 06:16:54;;;;;;;29.83;12.15;;;;;;;0.49;90.01;90881.06;5035652;28;20056;-88
2021/10/15 06:19:22;;;;;;;37.03;14.18;;;;;;;0.69;89.33;90880.16;5034452;28;20045;-87
2021/10/15 06:21:48;;;;;;;27.77;10.85;;;;;;;0.66;89.43;90871.19;5013246;28;20033;-88
2021/10/15 06:24:13;;;;;;;13.43;5.78;;;;;;;0.65;89.70;90874.03;5035974;28;20026;-89
2021/10/15 06:26:39;;;;;;;6.82;2.80;;;;;;;0.69;90.33;90875.03;5019206;28;20490;-88
2021/10/15 06:29:04;;;;;;;6.30;2.28;;;;;;;0.75;90.11;90871.41;4998354;28;20021;-88
2021/10/15 06:31:30;;;;;;;2.80;1.40;;;;;;;0.78;90.52;90878.56;5014622;28;20036;-88
2021/10/15 06:33:55;;;;;;;2.22;1.10;;;;;;;0.81;90.47;90878.00;5013066;28;20022;-88
2021/10/15 06:36:21;;;;;;;2.20;1.00;;;;;;;0.81;90.50;90883.13;5013637;28;20223;-88
2021/10/15 06:38:46;;;;;;;5.18;0.90;;;;;;;0.97;90.17;90881.22;5013274;28;20025;-88
2021/10/15 06:41:12;;;;;;;1.08;0.65;;;;;;;0.87;90.62;90874.34;4998455;28;20034;-88
2021/10/15 06:43:37;;;;;;;1.50;0.75;;;;;;;0.92;90.51;90878.69;4978935;28;20018;-89
2021/10/15 06:46:03;;;;;;;2.17;0.93;;;;;;;0.95;89.60;90868.66;4977139;28;20026;-90
2021/10/15 06:48:28;;;;;;;2.33;1.30;;;;;;;1.03;88.64;90877.56;4976853;28;20795;-88
2021/10/15 06:50:54;;;;;;;4.35;1.80;;;;;;;0.87;88.10;90882.06;5008241;28;20021;-89
2021/10/15 06:53:20;;;;;;;9.88;4.65;;;;;;;0.98;87.85;90880.16;5011175;28;20041;-88
2021/10/15 06:55:47;;;;;;;5.72;3.80;;;;;;;0.94;88.65;90885.06;4999181;28;20154;-86
2021/10/15 06:58:13;;;;;;;2.78;1.70;;;;;;;1.00;90.81;90882.47;5032349;28;20543;-90
2021/10/15 07:00:38;;;;;;;2.95;1.88;;;;;;;1.08;90.66;90887.03;5044327;23;20045;-88
2021/10/15 07:03:12;;;;;;;5.63;3.97;;;;;;;1.15;89.17;90887.47;5010967;28;20022;-87
2021/10/15 07:05:37;;;;;;;5.75;4.07;;;;;;;1.29;87.38;90890.94;4994461;28;20026;-87
2021/10/15 07:08:03;;;;;;;3.80;2.47;;;;;;;1.14;87.68;90891.06;5011573;28;20026;-87
2021/10/15 07:10:30;;;;;;;3.90;1.20;;;;;;;1.13;89.33;90887.75;5022227;28;20025;-89
2021/10/15 07:12:56;;;;;;;2.30;0.82;;;;;;;1.25;89.55;90891.75;4998566;28;20030;-88
2021/10/15 07:15:21;;;;;;;2.22;1.00;;;;;;;1.33;90.13;90886.00;5014845;28;20033;-87
2021/10/15 07:17:47;;;;;;;1.55;1.10;;;;;;;1.48;90.00;90892.78;4999922;28;20032;-88
2021/10/15 07:20:12;;;;;;;3.25;1.08;;;;;;;1.60;90.58;90899.09;5014918;28;20025;-87
2021/10/15 07:22:37;;;;;;;2.47;1.70;;;;;;;1.74;90.64;90895.88;5014886;28;20072;-88
2021/10/15 07:25:04;;;;;;;1.80;1.23;;;;;;;1.92;90.42;90893.31;5015140;28;20032;-90
2021/10/15 07:27:29;;;;;;;2.05;1.38;;;;;;;1.99;91.02;90898.13;4979489;28;20030;-87
2021/10/15 07:29:55;;;;;;;10.85;5.25;;;;;;;2.11;91.21;90908.00;4979980;28;20403;-88
2021/10/15 07:32:20;;;;;;;9.48;4.88;;;;;;;2.19;90.72;90907.41;5012730;28;20029;-87
2021/10/15 07:34:46;;;;;;;5.95;3.58;;;;;;;2.27;91.23;90908.59;5012821;28;20072;-87
2021/10/15 07:37:11;;;;;;;8.50;4.85;;;;;;;2.39;91.58;90909.69;4996143;28;20029;-87
2021/10/15 07:39:36;;;;;;;7.32;4.07;;;;;;;2.51;91.33;90900.78;4996243;28;20049;-87
2021/10/15 07:42:03;;;;;;;6.00;3.05;;;;;;;2.88;92.40;90908.50;4998904;28;20570;-87
2021/10/15 07:44:29;;;;;;;4.03;2.88;;;;;;;2.89;91.26;90909.25;4996621;28;20021;-87
2021/10/15 07:46:55;;;;;;;2.78;2.03;;;;;;;3.01;90.60;90901.09;4997549;28;20088;-88
2021/10/15 07:49:20;;;;;;;3.88;2.00;;;;;;;3.19;91.01;90900.28;4995189;28;20033;-86
2021/10/15 07:51:46;;;;;;;2.45;2.00;;;;;;;3.35;91.54;90898.97;5012085;28;20037;-88
2021/10/15 07:54:11;;;;;;;4.05;1.80;;;;;;;3.51;91.33;90889.19;4995951;28;20049;-87
2021/10/15 07:56:37;;;;;;;4.85;1.95;;;;;;;3.69;91.70;90891.97;4979867;28;20018;-87
2021/10/15 07:59:02;;;;;;;2.00;1.30;;;;;;;3.92;92.19;90896.16;5012882;28;20467;-85
2021/10/15 08:01:28;;;;;;;3.45;1.50;;;;;;;4.11;92.93;90895.28;5011879;28;20031;-87
2021/10/15 08:03:53;;;;;;;2.28;1.40;;;;;;;4.19;92.55;90895.34;5012366;28;20025;-89
2021/10/15 08:06:20;;;;;;;2.55;1.80;;;;;;;4.32;92.33;90892.00;4995384;28;20025;-87
2021/10/15 08:08:46;;;;;;;6.05;2.17;;;;;;;4.46;91.07;90893.78;4995692;28;20101;-87
2021/10/15 08:11:11;;;;;;;3.05;1.60;;;;;;;4.64;91.06;90892.88;4994708;28;20112;-90
2021/10/15 08:13:37;;;;;;;6.32;1.92;;;;;;;4.72;91.60;90902.50;4994904;28;20433;-88
2021/10/15 08:16:03;;;;;;;3.78;1.58;;;;;;;4.84;91.23;90904.59;5011286;28;20080;-88
2021/10/15 08:18:28;;;;;;;4.07;1.73;;;;;;;5.01;90.65;90906.50;5010539;28;20068;-88
2021/10/15 08:20:57;;;;;;;2.78;1.40;;;;;;;5.14;90.66;90903.09;5010744;28;20033;-88
2021/10/15 08:23:26;;;;;;;1.48;0.90;;;;;;;5.30;90.92;90905.31;4995091;28;20022;-87
2021/10/15 08:25:54;;;;;;;1.10;0.90;;;;;;;5.44;90.17;90906.78;5010978;28;20052;-88
2021/10/15 08:28:20;;;;;;;1.25;0.80;;;;;;;5.59;91.48;90905.63;4994645;28;20049;-87
2021/10/15 08:30:45;;;;;;;1.50;0.80;;;;;;;5.80;91.24;90897.38;5010253;28;20030;-88
2021/10/15 08:33:10;;;;;;;3.72;1.10;;;;;;;5.96;91.36;90906.25;5011473;28;20029;-88
2021/10/15 08:35:36;;;;;;;2.17;0.95;;;;;;;6.07;91.03;90897.16;4978018;28;20054;-88
2021/10/15 08:38:01;;;;;;;1.35;0.90;;;;;;;6.31;82.48;90896.00;4979006;28;20033;-88
2021/10/15 08:40:27;;;;;;;2.95;0.80;;;;;;;6.64;86.55;90902.31;4997670;28;20421;-88
2021/10/15 08:42:56;;;;;;;1.17;0.82;;;;;;;6.73;83.70;90902.31;4998025;28;20488;-88
2021/10/15 08:45:25;;;;;;;1.95;1.10;;;;;;;7.04;76.76;90896.22;4998222;28;20022;-88
2021/10/15 08:47:51;;;;;;;1.95;0.80;;;;;;;7.14;81.91;90901.84;4998060;28;20026;-88
2021/10/15 08:50:16;;;;;;;3.72;1.35;;;;;;;7.38;84.53;90911.72;5014422;28;20096;-87
2021/10/15 08:52:41;;;;;;;2.10;1.15;;;;;;;7.53;76.87;90907.88;4982026;28;20382;-88
2021/10/15 08:55:07;;;;;;;2.38;0.80;;;;;;;7.70;78.43;90906.31;4997177;28;20026;-89
2021/10/15 08:57:33;;;;;;;1.83;0.93;;;;;;;7.84;73.93;90910.25;5013980;28;20026;-88
2021/10/15 08:59:58;;;;;;;1.50;0.90;;;;;;;8.24;68.75;90909.16;4997626;28;20030;-88
2021/10/15 09:02:24;;;;;;;1.10;0.80;;;;;;;8.28;69.71;90908.22;5013761;28;20030;-90
2021/10/15 09:04:49;;;;;;;1.80;0.77;;;;;;;8.29;68.69;90906.38;4981370;28;20076;-87
2021/10/15 09:07:15;;;;;;;1.13;0.82;;;;;;;8.43;73.51;90909.53;5015060;28;20114;-88
2021/10/15 09:09:41;;;;;;;1.48;0.90;;;;;;;8.55;70.37;90904.44;4982538;28;20029;-90
2021/10/15 09:12:10;;;;;;;2.78;0.88;;;;;;;8.65;73.18;90907.72;5017591;28;20034;-91
2021/10/15 09:14:37;;;;;;;1.20;0.75;;;;;;;8.78;72.73;90904.13;5008822;28;20034;-89
2021/10/15 09:17:08;;;;;;;1.98;1.10;;;;;;;8.92;71.91;90902.03;4997753;28;20049;-88
2021/10/15 09:20:03;;;;;;;1.55;0.90;;;;;;;9.05;71.88;90900.28;5021048;28;20021;-88
2021/10/15 09:22:32;;;;;;;2.03;1.10;;;;;;;9.08;72.57;90894.41;5033341;28;20080;-89
2021/10/15 09:25:09;;;;;;;1.75;0.93;;;;;;;9.23;65.82;90890.50;5017096;28;20477;-88
2021/10/15 09:27:38;;;;;;;4.30;1.08;;;;;;;9.30;62.82;90896.69;5016604;28;20061;-88
2021/10/15 09:30:10;;;;;;;2.85;1.17;;;;;;;9.40;68.13;90900.75;5032454;28;20445;-89
2021/10/15 09:32:39;;;;;;;1.85;1.20;;;;;;;9.55;67.72;90902.72;5032751;28;20178;-89
2021/10/15 09:35:05;;;;;;;2.15;1.20;;;;;;;9.79;67.98;90893.47;5016663;28;20032;-88
2021/10/15 09:37:33;;;;;;;2.00;1.27;;;;;;;9.96;62.71;90900.28;4999930;28;20025;-88
2021/10/15 09:40:04;;;;;;;3.33;1.10;;;;;;;9.97;66.18;90894.78;5016120;28;20022;-89
2021/10/15 09:42:30;;;;;;;3.40;0.98;;;;;;;10.13;63.39;90888.94;5033711;28;20021;-88
2021/10/15 09:45:01;;;;;;;1.55;0.93;;;;;;;10.28;65.33;90896.13;5016843;28;20032;-88
2021/10/15 09:47:28;;;;;;;1.17;0.80;;;;;;;10.31;60.11;90892.09;5016401;28;20462;-89
2021/10/15 09:50:01;;;;;;;1.40;0.80;;;;;;;10.44;59.46;90894.38;5015671;28;20440;-88
2021/10/15 09:52:49;;;;;;;3.70;1.00;;;;;;;10.58;62.78;90882.88;5032601;28;20032;-89
2021/10/15 09:55:21;;;;;;;1.30;0.70;;;;;;;10.70;56.99;90880.22;5015866;28;20108;-88
2021/10/15 09:57:48;;;;;;;3.05;0.85;;;;;;;10.83;61.68;90889.56;5017002;28;20025;-90
2021/10/15 10:00:27;;;;;;;1.35;0.70;;;;;;;10.87;61.57;90879.22;5018635;28;20038;-88
2021/10/15 10:02:53;;;;;;;1.17;0.60;;;;;;;11.01;57.50;90888.19;5000093;28;20064;-89
2021/10/15 10:05:19;;;;;;;1.52;0.68;;;;;;;11.18;59.04;90879.34;5034237;28;20029;-87
2021/10/15 10:07:49;;;;;;;1.42;0.77;;;;;;;11.19;54.35;90886.06;5006130;28;20481;-88
2021/10/15 10:10:23;;;;;;;2.08;0.65;;;;;;;10.98;54.51;90883.63;5001827;28;20025;-88
2021/10/15 10:12:49;;;;;;;1.50;0.90;;;;;;;11.12;57.91;90877.31;5001799;28;20025;-88
2021/10/15 10:15:19;;;;;;;2.05;0.85;;;;;;;11.11;57.08;90883.63;4999750;28;20071;-88
2021/10/15 10:17:47;;;;;;;1.15;0.70;;;;;;;10.93;55.32;90873.44;5032802;28;20026;-89
2021/10/15 10:20:16;;;;;;;1.58;0.80;;;;;;;10.88;56.10;90870.31;5020825;28;20049;-88
2021/10/15 10:22:45;;;;;;;1.48;0.90;;;;;;;10.75;58.09;90872.94;5013198;28;20109;-88
2021/10/15 10:25:11;;;;;;;1.40;0.70;;;;;;;10.78;56.49;90881.97;4997770;28;20155;-88
2021/10/15 10:27:37;;;;;;;1.25;0.80;;;;;;;10.71;56.56;90869.50;4979679;28;20582;-89
2021/10/15 10:30:02;;;;;;;1.63;0.80;;;;;;;10.98;55.43;90875.81;4979249;28;20084;-89
2021/10/15 10:32:28;;;;;;;1.50;0.82;;;;;;;10.77;54.49;90870.00;4979954;28;20080;-89
2021/10/15 10:34:54;;;;;;;1.73;0.90;;;;;;;10.98;55.85;90859.41;4998605;28;20021;-88
2021/10/15 10:37:20;;;;;;;1.40;0.80;;;;;;;10.85;53.45;90861.31;4980566;28;20097;-89
2021/10/15 10:39:46;;;;;;;2.13;0.80;;;;;;;10.93;52.84;90867.47;4996776;28;20028;-88
2021/10/15 10:42:13;;;;;;;1.27;0.70;;;;;;;10.98;54.11;90854.97;4996121;28;20448;-89
2021/10/15 10:44:48;;;;;;;1.42;0.70;;;;;;;11.10;51.86;90853.41;5013698;28;20051;-88
2021/10/15 10:47:17;;;;;;;1.70;0.80;;;;;;;11.14;53.43;90851.66;5013658;28;20095;-88
2021/10/15 10:50:06;;;;;;;0.90;0.70;;;;;;;11.57;55.03;90850.16;5000590;28;20029;-89
2021/10/15 10:52:32;;;;;;;2.75;0.88;;;;;;;11.67;52.61;90855.63;5016450;28;20471;-89
2021/10/15 10:54:57;;;;;;;2.40;0.70;;;;;;;11.82;53.91;90848.91;4999773;28;20486;-88
2021/10/15 10:57:27;;;;;;;1.15;0.80;;;;;;;11.82;50.06;90859.34;5000439;28;20040;-88
2021/10/15 10:59:53;;;;;;;1.25;0.75;;;;;;;11.66;49.71;90845.53;5000026;28;20034;-89
2021/10/15 11:02:20;;;;;;;2.15;0.82;;;;;;;11.80;50.50;90858.16;5000414;28;20049;-88
2021/10/15 11:04:51;;;;;;;1.25;0.80;;;;;;;11.93;47.47;90844.72;4999180;28;20041;-89
2021/10/15 11:07:16;;;;;;;1.00;0.50;;;;;;;12.10;47.20;90846.25;5014577;28;20076;-89
2021/10/15 11:09:43;;;;;;;1.85;0.60;;;;;;;12.15;47.28;90851.19;5013755;28;20387;-90
2021/10/15 11:12:21;;;;;;;1.55;0.55;;;;;;;12.27;46.95;90847.75;4999849;28;20140;-89
2021/10/15 11:14:59;;;;;;;1.58;0.90;;;;;;;12.44;48.44;90857.84;4999837;28;20051;-88
2021/10/15 11:17:25;;;;;;;2.67;0.80;;;;;;;12.65;50.03;90846.34;5000625;28;20048;-89
2021/10/15 11:20:09;;;;;;;2.00;0.88;;;;;;;12.70;48.53;90848.69;5024169;28;20041;-89
2021/10/15 11:22:35;;;;;;;2.30;0.70;;;;;;;12.77;50.32;90840.97;5035418;28;20064;-89
2021/10/15 11:25:00;;;;;;;1.15;0.73;;;;;;;12.82;49.53;90840.69;5002302;28;20033;-90
2021/10/15 11:27:26;;;;;;;2.78;0.80;;;;;;;12.92;51.44;90842.03;5030566;28;20033;-89
2021/10/15 11:29:57;;;;;;;1.70;1.02;;;;;;;12.88;51.57;90843.81;5045791;28;20033;-88
2021/10/15 11:32:43;;;;;;;1.70;1.00;;;;;;;12.90;50.03;90844.25;5001526;28;20393;-89
2021/10/15 11:35:25;;;;;;;2.33;1.23;;;;;;;12.60;49.30;90843.97;5001726;28;20110;-88
2021/10/15 11:38:18;;;;;;;2.45;1.30;;;;;;;12.80;48.04;90840.31;5034097;28;20569;-89
2021/10/15 11:40:48;;;;;;;2.28;1.02;;;;;;;12.66;49.29;90842.63;5016382;28;20027;-89
2021/10/15 11:43:27;;;;;;;1.92;0.98;;;;;;;12.66;49.21;90840.75;5033267;28;20025;-90
2021/10/15 11:45:54;;;;;;;1.52;0.90;;;;;;;12.76;49.82;90836.84;5019095;28;20480;-89
2021/10/15 11:48:42;;;;;;;2.80;1.10;;;;;;;12.97;51.55;90830.53;5018328;28;20501;-91
2021/10/15 11:51:11;;;;;;;1.98;1.00;;;;;;;12.93;47.90;90838.28;5036078;28;20055;-89